Tributaries of Morava river

Břeclav-Ladná (Thaya)

Date and time (UTC) H (cm) Q (m³/s)
22. 4. 2024 04:20 31 20.3
22. 4. 2024 04:00 31 20
22. 4. 2024 03:00 33 21
22. 4. 2024 02:00 31 20
22. 4. 2024 01:00 30 20
22. 4. 2024 00:00 28 19
21. 4. 2024 23:00 32 21
21. 4. 2024 22:00 31 20
21. 4. 2024 21:00 30 20
21. 4. 2024 20:00 31 20
21. 4. 2024 19:00 31 20
21. 4. 2024 18:00 33 21
21. 4. 2024 17:00 32 21
21. 4. 2024 16:00 32 21

H - water level, Q - discharge

Dluhonice (Bečva)

Date and time (UTC) H (cm) Q (m³/s)
22. 4. 2024 04:20 162 29.5
22. 4. 2024 04:00 162 30
22. 4. 2024 03:00 163 30
22. 4. 2024 02:00 163 30
22. 4. 2024 01:00 164 31
22. 4. 2024 00:00 164 31
21. 4. 2024 23:00 165 32
21. 4. 2024 22:00 164 31
21. 4. 2024 21:00 168 35
21. 4. 2024 20:00 168 35
21. 4. 2024 19:00 170 37
21. 4. 2024 18:00 172 39
21. 4. 2024 17:00 168 35
21. 4. 2024 16:00 174 41

H - water level, Q - discharge
Source data
Labe Basin Vltava Basin Povodí Moravy ČHMÚ
Po vodě ekologicky, levně a v pohodě
backgroung on backgroung off